sensor_id;sensor_type;location;lat;lon;timestamp;P1;durP1;ratioP1;P2;durP2;ratioP2
25932;SDS011;13731;51.166;4.474;2023-09-19T00:01:42;93.13;;;87.93;;
25932;SDS011;13731;51.166;4.474;2023-09-19T00:04:11;97.93;;;91.85;;
25932;SDS011;13731;51.166;4.474;2023-09-19T00:06:38;94.55;;;89.00;;
25932;SDS011;13731;51.166;4.474;2023-09-19T00:09:04;95.72;;;90.18;;
25932;SDS011;13731;51.166;4.474;2023-09-19T00:11:35;91.97;;;87.00;;
25932;SDS011;13731;51.166;4.474;2023-09-19T00:14:02;95.40;;;90.30;;
25932;SDS011;13731;51.166;4.474;2023-09-19T00:16:30;92.30;;;87.18;;
25932;SDS011;13731;51.166;4.474;2023-09-19T00:18:57;95.80;;;90.90;;
25932;SDS011;13731;51.166;4.474;2023-09-19T00:21:24;97.07;;;91.53;;
25932;SDS011;13731;51.166;4.474;2023-09-19T00:23:50;96.95;;;91.88;;
25932;SDS011;13731;51.166;4.474;2023-09-19T00:26:17;94.00;;;88.53;;
25932;SDS011;13731;51.166;4.474;2023-09-19T00:28:46;83.47;;;78.60;;
25932;SDS011;13731;51.166;4.474;2023-09-19T00:31:12;76.50;;;72.15;;
25932;SDS011;13731;51.166;4.474;2023-09-19T00:33:38;67.13;;;63.15;;
25932;SDS011;13731;51.166;4.474;2023-09-19T00:36:04;56.88;;;53.40;;
25932;SDS011;13731;51.166;4.474;2023-09-19T00:38:30;47.22;;;44.53;;
25932;SDS011;13731;51.166;4.474;2023-09-19T00:40:57;41.38;;;38.85;;
25932;SDS011;13731;51.166;4.474;2023-09-19T00:43:26;42.85;;;40.53;;
25932;SDS011;13731;51.166;4.474;2023-09-19T00:45:53;43.55;;;40.88;;
25932;SDS011;13731;51.166;4.474;2023-09-19T00:48:21;43.45;;;40.33;;
25932;SDS011;13731;51.166;4.474;2023-09-19T00:50:48;51.60;;;48.33;;
25932;SDS011;13731;51.166;4.474;2023-09-19T00:53:15;52.22;;;48.80;;
25932;SDS011;13731;51.166;4.474;2023-09-19T00:55:46;52.75;;;49.45;;
25932;SDS011;13731;51.166;4.474;2023-09-19T00:58:13;46.05;;;42.90;;
25932;SDS011;13731;51.166;4.474;2023-09-19T01:00:39;46.70;;;43.75;;
25932;SDS011;13731;51.166;4.474;2023-09-19T01:03:06;47.15;;;44.30;;
25932;SDS011;13731;51.166;4.474;2023-09-19T01:05:35;44.60;;;41.80;;
25932;SDS011;13731;51.166;4.474;2023-09-19T01:08:01;49.50;;;46.20;;
25932;SDS011;13731;51.166;4.474;2023-09-19T01:10:27;43.70;;;41.15;;
25932;SDS011;13731;51.166;4.474;2023-09-19T01:18:49;42.15;;;39.88;;
25932;SDS011;13731;51.166;4.474;2023-09-19T01:27:04;45.25;;;42.17;;
25932;SDS011;13731;51.166;4.474;2023-09-19T01:29:51;44.10;;;41.42;;
25932;SDS011;13731;51.166;4.474;2023-09-19T01:32:20;40.63;;;37.85;;
25932;SDS011;13731;51.166;4.474;2023-09-19T01:37:16;42.08;;;39.53;;
25932;SDS011;13731;51.166;4.474;2023-09-19T01:39:49;41.60;;;38.80;;
25932;SDS011;13731;51.166;4.474;2023-09-19T01:42:55;38.42;;;35.83;;
25932;SDS011;13731;51.166;4.474;2023-09-19T01:51:08;36.88;;;34.28;;
25932;SDS011;13731;51.166;4.474;2023-09-19T01:59:16;37.55;;;34.80;;
25932;SDS011;13731;51.166;4.474;2023-09-19T02:01:46;36.95;;;34.25;;
25932;SDS011;13731;51.166;4.474;2023-09-19T02:04:14;36.13;;;33.53;;
25932;SDS011;13731;51.166;4.474;2023-09-19T02:06:40;35.10;;;32.58;;
25932;SDS011;13731;51.166;4.474;2023-09-19T02:09:07;36.17;;;33.58;;
25932;SDS011;13731;51.166;4.474;2023-09-19T02:11:34;35.05;;;32.20;;
25932;SDS011;13731;51.166;4.474;2023-09-19T02:14:00;33.00;;;30.75;;
25932;SDS011;13731;51.166;4.474;2023-09-19T02:16:27;36.35;;;34.13;;
25932;SDS011;13731;51.166;4.474;2023-09-19T02:18:54;35.38;;;33.10;;
25932;SDS011;13731;51.166;4.474;2023-09-19T02:21:19;37.00;;;33.97;;
25932;SDS011;13731;51.166;4.474;2023-09-19T02:23:47;40.50;;;37.45;;
25932;SDS011;13731;51.166;4.474;2023-09-19T02:26:13;43.38;;;40.25;;
25932;SDS011;13731;51.166;4.474;2023-09-19T02:28:40;50.85;;;47.92;;
25932;SDS011;13731;51.166;4.474;2023-09-19T02:31:07;61.10;;;58.03;;
25932;SDS011;13731;51.166;4.474;2023-09-19T02:33:34;77.95;;;73.57;;
25932;SDS011;13731;51.166;4.474;2023-09-19T02:36:00;86.93;;;81.95;;
25932;SDS011;13731;51.166;4.474;2023-09-19T02:38:29;93.65;;;88.47;;
25932;SDS011;13731;51.166;4.474;2023-09-19T02:40:55;98.18;;;92.80;;
25932;SDS011;13731;51.166;4.474;2023-09-19T02:43:22;95.00;;;89.63;;
25932;SDS011;13731;51.166;4.474;2023-09-19T02:45:48;96.30;;;90.88;;
25932;SDS011;13731;51.166;4.474;2023-09-19T02:48:20;101.55;;;95.85;;
25932;SDS011;13731;51.166;4.474;2023-09-19T02:50:49;104.03;;;97.93;;
25932;SDS011;13731;51.166;4.474;2023-09-19T02:53:15;101.93;;;96.13;;
25932;SDS011;13731;51.166;4.474;2023-09-19T02:55:41;93.40;;;88.35;;
25932;SDS011;13731;51.166;4.474;2023-09-19T02:58:08;97.97;;;92.45;;
25932;SDS011;13731;51.166;4.474;2023-09-19T03:00:37;96.05;;;90.72;;
25932;SDS011;13731;51.166;4.474;2023-09-19T03:03:03;92.47;;;87.38;;
25932;SDS011;13731;51.166;4.474;2023-09-19T03:05:31;94.38;;;89.30;;
25932;SDS011;13731;51.166;4.474;2023-09-19T03:07:58;85.13;;;80.15;;
25932;SDS011;13731;51.166;4.474;2023-09-19T03:10:27;82.95;;;78.13;;
25932;SDS011;13731;51.166;4.474;2023-09-19T03:12:56;83.53;;;78.78;;
25932;SDS011;13731;51.166;4.474;2023-09-19T03:15:25;79.00;;;73.22;;
25932;SDS011;13731;51.166;4.474;2023-09-19T03:17:52;83.15;;;78.47;;
25932;SDS011;13731;51.166;4.474;2023-09-19T03:20:21;86.63;;;81.57;;
25932;SDS011;13731;51.166;4.474;2023-09-19T03:22:48;82.00;;;77.13;;
25932;SDS011;13731;51.166;4.474;2023-09-19T03:25:15;76.85;;;72.72;;
25932;SDS011;13731;51.166;4.474;2023-09-19T03:27:44;81.55;;;76.75;;
25932;SDS011;13731;51.166;4.474;2023-09-19T03:30:11;79.05;;;74.25;;
25932;SDS011;13731;51.166;4.474;2023-09-19T03:32:45;77.55;;;73.13;;
25932;SDS011;13731;51.166;4.474;2023-09-19T03:35:19;80.15;;;75.45;;
25932;SDS011;13731;51.166;4.474;2023-09-19T03:37:46;83.43;;;78.30;;
25932;SDS011;13731;51.166;4.474;2023-09-19T03:40:13;79.80;;;75.57;;
25932;SDS011;13731;51.166;4.474;2023-09-19T03:42:41;82.80;;;77.60;;
25932;SDS011;13731;51.166;4.474;2023-09-19T03:47:38;87.40;;;82.72;;
25932;SDS011;13731;51.166;4.474;2023-09-19T03:50:06;99.93;;;94.47;;
25932;SDS011;13731;51.166;4.474;2023-09-19T03:52:34;98.68;;;93.10;;
25932;SDS011;13731;51.166;4.474;2023-09-19T03:55:00;102.88;;;97.22;;
25932;SDS011;13731;51.166;4.474;2023-09-19T03:57:29;92.10;;;86.80;;
25932;SDS011;13731;51.166;4.474;2023-09-19T03:59:54;145.45;;;137.15;;
25932;SDS011;13731;51.166;4.474;2023-09-19T04:02:21;98.50;;;92.97;;
25932;SDS011;13731;51.166;4.474;2023-09-19T04:04:49;115.47;;;109.30;;
25932;SDS011;13731;51.166;4.474;2023-09-19T04:07:16;111.38;;;105.57;;
25932;SDS011;13731;51.166;4.474;2023-09-19T04:09:45;112.40;;;105.88;;
25932;SDS011;13731;51.166;4.474;2023-09-19T04:12:11;109.55;;;102.55;;
25932;SDS011;13731;51.166;4.474;2023-09-19T04:14:37;109.38;;;103.60;;
25932;SDS011;13731;51.166;4.474;2023-09-19T04:17:04;112.05;;;106.25;;
25932;SDS011;13731;51.166;4.474;2023-09-19T04:19:31;108.65;;;102.22;;
25932;SDS011;13731;51.166;4.474;2023-09-19T04:21:57;111.30;;;104.65;;
25932;SDS011;13731;51.166;4.474;2023-09-19T04:24:23;112.60;;;106.13;;
25932;SDS011;13731;51.166;4.474;2023-09-19T04:26:49;112.47;;;106.13;;
25932;SDS011;13731;51.166;4.474;2023-09-19T04:29:15;112.45;;;106.60;;
25932;SDS011;13731;51.166;4.474;2023-09-19T04:31:41;113.85;;;107.75;;
25932;SDS011;13731;51.166;4.474;2023-09-19T04:34:10;119.43;;;112.70;;
25932;SDS011;13731;51.166;4.474;2023-09-19T04:36:42;115.80;;;108.80;;
25932;SDS011;13731;51.166;4.474;2023-09-19T04:39:09;114.72;;;108.28;;
25932;SDS011;13731;51.166;4.474;2023-09-19T04:41:38;114.15;;;107.35;;
25932;SDS011;13731;51.166;4.474;2023-09-19T04:44:06;112.90;;;106.93;;
25932;SDS011;13731;51.166;4.474;2023-09-19T04:46:35;112.32;;;105.80;;
25932;SDS011;13731;51.166;4.474;2023-09-19T04:49:01;108.10;;;102.10;;
25932;SDS011;13731;51.166;4.474;2023-09-19T04:51:30;117.93;;;111.22;;
25932;SDS011;13731;51.166;4.474;2023-09-19T04:56:25;113.78;;;107.35;;
25932;SDS011;13731;51.166;4.474;2023-09-19T04:58:53;108.53;;;102.07;;
25932;SDS011;13731;51.166;4.474;2023-09-19T05:01:19;112.55;;;105.80;;
25932;SDS011;13731;51.166;4.474;2023-09-19T05:03:48;128.23;;;121.13;;
25932;SDS011;13731;51.166;4.474;2023-09-19T05:06:20;130.00;;;122.20;;
25932;SDS011;13731;51.166;4.474;2023-09-19T05:08:47;122.43;;;115.45;;
25932;SDS011;13731;51.166;4.474;2023-09-19T05:11:18;123.70;;;117.22;;
25932;SDS011;13731;51.166;4.474;2023-09-19T05:13:47;134.18;;;126.20;;
25932;SDS011;13731;51.166;4.474;2023-09-19T05:16:13;142.15;;;133.88;;
25932;SDS011;13731;51.166;4.474;2023-09-19T05:18:38;137.70;;;129.88;;
25932;SDS011;13731;51.166;4.474;2023-09-19T05:21:05;133.50;;;125.82;;
25932;SDS011;13731;51.166;4.474;2023-09-19T05:23:32;133.77;;;126.53;;
25932;SDS011;13731;51.166;4.474;2023-09-19T05:25:59;131.38;;;123.85;;
25932;SDS011;13731;51.166;4.474;2023-09-19T05:28:25;140.65;;;133.18;;
25932;SDS011;13731;51.166;4.474;2023-09-19T05:30:52;161.82;;;152.45;;
25932;SDS011;13731;51.166;4.474;2023-09-19T05:33:21;155.98;;;147.45;;
25932;SDS011;13731;51.166;4.474;2023-09-19T05:35:50;136.95;;;129.70;;
25932;SDS011;13731;51.166;4.474;2023-09-19T05:38:16;152.95;;;144.68;;
25932;SDS011;13731;51.166;4.474;2023-09-19T05:40:44;153.80;;;145.05;;
25932;SDS011;13731;51.166;4.474;2023-09-19T05:43:10;148.07;;;140.15;;
25932;SDS011;13731;51.166;4.474;2023-09-19T05:45:37;141.25;;;133.30;;
25932;SDS011;13731;51.166;4.474;2023-09-19T05:48:12;151.68;;;142.75;;
25932;SDS011;13731;51.166;4.474;2023-09-19T05:50:41;153.88;;;144.77;;
25932;SDS011;13731;51.166;4.474;2023-09-19T05:53:07;138.45;;;131.07;;
25932;SDS011;13731;51.166;4.474;2023-09-19T05:55:37;135.77;;;128.48;;
25932;SDS011;13731;51.166;4.474;2023-09-19T05:58:03;147.10;;;138.98;;
25932;SDS011;13731;51.166;4.474;2023-09-19T06:00:29;146.80;;;138.40;;
25932;SDS011;13731;51.166;4.474;2023-09-19T06:02:57;145.88;;;137.43;;
25932;SDS011;13731;51.166;4.474;2023-09-19T06:05:25;150.43;;;141.57;;
25932;SDS011;13731;51.166;4.474;2023-09-19T06:07:52;156.15;;;146.73;;
25932;SDS011;13731;51.166;4.474;2023-09-19T06:10:18;134.63;;;126.82;;
25932;SDS011;13731;51.166;4.474;2023-09-19T06:12:46;136.82;;;129.27;;
25932;SDS011;13731;51.166;4.474;2023-09-19T06:15:12;140.80;;;133.05;;
25932;SDS011;13731;51.166;4.474;2023-09-19T06:17:54;146.88;;;138.90;;
25932;SDS011;13731;51.166;4.474;2023-09-19T06:20:22;144.35;;;136.73;;
25932;SDS011;13731;51.166;4.474;2023-09-19T06:22:49;139.20;;;131.73;;
25932;SDS011;13731;51.166;4.474;2023-09-19T06:25:15;136.93;;;129.13;;
25932;SDS011;13731;51.166;4.474;2023-09-19T06:27:47;141.23;;;133.18;;
25932;SDS011;13731;51.166;4.474;2023-09-19T06:30:17;158.93;;;149.95;;
25932;SDS011;13731;51.166;4.474;2023-09-19T06:32:44;124.45;;;117.93;;
25932;SDS011;13731;51.166;4.474;2023-09-19T06:35:10;123.55;;;116.57;;
25932;SDS011;13731;51.166;4.474;2023-09-19T06:37:38;126.47;;;119.07;;
25932;SDS011;13731;51.166;4.474;2023-09-19T06:40:06;135.57;;;127.68;;
25932;SDS011;13731;51.166;4.474;2023-09-19T06:42:34;123.60;;;116.95;;
25932;SDS011;13731;51.166;4.474;2023-09-19T06:45:02;113.10;;;106.55;;
25932;SDS011;13731;51.166;4.474;2023-09-19T06:47:30;120.85;;;114.28;;
25932;SDS011;13731;51.166;4.474;2023-09-19T06:49:56;120.47;;;113.72;;
25932;SDS011;13731;51.166;4.474;2023-09-19T06:52:22;117.72;;;111.00;;
25932;SDS011;13731;51.166;4.474;2023-09-19T06:54:53;130.88;;;123.35;;
25932;SDS011;13731;51.166;4.474;2023-09-19T06:57:19;118.53;;;111.60;;
25932;SDS011;13731;51.166;4.474;2023-09-19T06:59:45;120.72;;;114.00;;
25932;SDS011;13731;51.166;4.474;2023-09-19T07:02:11;122.03;;;115.13;;
25932;SDS011;13731;51.166;4.474;2023-09-19T07:04:39;115.93;;;109.85;;
25932;SDS011;13731;51.166;4.474;2023-09-19T07:07:05;118.18;;;111.85;;
25932;SDS011;13731;51.166;4.474;2023-09-19T07:09:34;107.15;;;100.95;;
25932;SDS011;13731;51.166;4.474;2023-09-19T07:12:00;111.18;;;105.10;;
25932;SDS011;13731;51.166;4.474;2023-09-19T07:14:26;152.05;;;143.55;;
25932;SDS011;13731;51.166;4.474;2023-09-19T07:16:52;162.60;;;153.18;;
25932;SDS011;13731;51.166;4.474;2023-09-19T07:19:18;121.50;;;114.28;;
25932;SDS011;13731;51.166;4.474;2023-09-19T07:21:44;121.90;;;114.00;;
25932;SDS011;13731;51.166;4.474;2023-09-19T07:24:12;121.60;;;114.82;;
25932;SDS011;13731;51.166;4.474;2023-09-19T07:26:38;115.68;;;109.15;;
25932;SDS011;13731;51.166;4.474;2023-09-19T07:29:05;118.07;;;110.93;;
25932;SDS011;13731;51.166;4.474;2023-09-19T07:31:31;115.10;;;108.75;;
25932;SDS011;13731;51.166;4.474;2023-09-19T07:33:58;112.78;;;106.30;;
25932;SDS011;13731;51.166;4.474;2023-09-19T07:36:24;109.22;;;102.93;;
25932;SDS011;13731;51.166;4.474;2023-09-19T07:38:50;106.85;;;100.90;;
25932;SDS011;13731;51.166;4.474;2023-09-19T07:41:15;102.43;;;96.65;;
25932;SDS011;13731;51.166;4.474;2023-09-19T07:43:41;112.75;;;106.03;;
25932;SDS011;13731;51.166;4.474;2023-09-19T07:46:08;109.80;;;104.22;;
25932;SDS011;13731;51.166;4.474;2023-09-19T07:48:35;131.35;;;123.95;;
25932;SDS011;13731;51.166;4.474;2023-09-19T07:51:02;109.90;;;103.70;;
25932;SDS011;13731;51.166;4.474;2023-09-19T07:53:29;126.60;;;119.47;;
25932;SDS011;13731;51.166;4.474;2023-09-19T07:56:02;118.43;;;111.68;;
25932;SDS011;13731;51.166;4.474;2023-09-19T07:58:32;116.07;;;109.80;;
25932;SDS011;13731;51.166;4.474;2023-09-19T08:01:02;106.18;;;100.38;;
25932;SDS011;13731;51.166;4.474;2023-09-19T08:03:34;106.43;;;100.45;;
25932;SDS011;13731;51.166;4.474;2023-09-19T08:06:05;115.60;;;108.82;;
25932;SDS011;13731;51.166;4.474;2023-09-19T08:08:32;117.78;;;111.18;;
25932;SDS011;13731;51.166;4.474;2023-09-19T08:11:02;127.15;;;119.80;;
25932;SDS011;13731;51.166;4.474;2023-09-19T08:13:38;108.22;;;101.47;;
25932;SDS011;13731;51.166;4.474;2023-09-19T08:16:12;115.25;;;108.80;;
25932;SDS011;13731;51.166;4.474;2023-09-19T08:18:40;124.22;;;117.03;;
25932;SDS011;13731;51.166;4.474;2023-09-19T08:21:07;119.85;;;113.28;;
25932;SDS011;13731;51.166;4.474;2023-09-19T08:23:36;100.40;;;94.80;;
25932;SDS011;13731;51.166;4.474;2023-09-19T08:26:03;104.85;;;98.82;;
25932;SDS011;13731;51.166;4.474;2023-09-19T08:28:36;106.65;;;100.53;;
25932;SDS011;13731;51.166;4.474;2023-09-19T08:31:06;88.35;;;83.57;;
25932;SDS011;13731;51.166;4.474;2023-09-19T08:33:34;83.43;;;78.45;;
25932;SDS011;13731;51.166;4.474;2023-09-19T08:36:01;83.03;;;77.93;;
25932;SDS011;13731;51.166;4.474;2023-09-19T08:38:33;72.68;;;68.32;;
25932;SDS011;13731;51.166;4.474;2023-09-19T08:41:00;78.72;;;73.85;;
25932;SDS011;13731;51.166;4.474;2023-09-19T08:43:30;85.05;;;80.30;;
25932;SDS011;13731;51.166;4.474;2023-09-19T08:48:31;86.50;;;81.40;;
25932;SDS011;13731;51.166;4.474;2023-09-19T08:51:03;91.90;;;86.78;;
25932;SDS011;13731;51.166;4.474;2023-09-19T08:56:12;106.57;;;100.18;;
25932;SDS011;13731;51.166;4.474;2023-09-19T08:58:41;100.13;;;94.53;;
25932;SDS011;13731;51.166;4.474;2023-09-19T09:01:15;109.00;;;102.78;;
25932;SDS011;13731;51.166;4.474;2023-09-19T09:03:42;101.32;;;95.25;;
25932;SDS011;13731;51.166;4.474;2023-09-19T09:06:13;80.40;;;75.40;;
25932;SDS011;13731;51.166;4.474;2023-09-19T09:11:07;69.35;;;65.75;;
25932;SDS011;13731;51.166;4.474;2023-09-19T09:13:34;79.85;;;75.05;;
25932;SDS011;13731;51.166;4.474;2023-09-19T09:16:02;74.40;;;68.97;;
25932;SDS011;13731;51.166;4.474;2023-09-19T09:18:29;77.65;;;73.38;;
25932;SDS011;13731;51.166;4.474;2023-09-19T09:20:55;78.00;;;73.70;;
25932;SDS011;13731;51.166;4.474;2023-09-19T09:23:21;83.18;;;77.88;;
25932;SDS011;13731;51.166;4.474;2023-09-19T09:25:48;73.00;;;68.68;;
25932;SDS011;13731;51.166;4.474;2023-09-19T09:28:20;68.45;;;64.43;;
25932;SDS011;13731;51.166;4.474;2023-09-19T09:30:48;69.97;;;65.70;;
25932;SDS011;13731;51.166;4.474;2023-09-19T09:33:14;68.28;;;64.55;;
25932;SDS011;13731;51.166;4.474;2023-09-19T09:35:50;58.67;;;55.00;;
25932;SDS011;13731;51.166;4.474;2023-09-19T09:38:21;53.67;;;50.13;;
25932;SDS011;13731;51.166;4.474;2023-09-19T09:40:56;66.25;;;62.58;;
25932;SDS011;13731;51.166;4.474;2023-09-19T09:43:33;64.53;;;61.05;;
25932;SDS011;13731;51.166;4.474;2023-09-19T09:46:07;68.25;;;64.38;;
25932;SDS011;13731;51.166;4.474;2023-09-19T09:48:57;58.80;;;55.20;;
25932;SDS011;13731;51.166;4.474;2023-09-19T09:51:46;65.50;;;61.50;;
25932;SDS011;13731;51.166;4.474;2023-09-19T09:54:23;83.10;;;78.20;;
25932;SDS011;13731;51.166;4.474;2023-09-19T09:56:56;78.18;;;73.85;;
25932;SDS011;13731;51.166;4.474;2023-09-19T10:02:13;87.15;;;82.53;;
25932;SDS011;13731;51.166;4.474;2023-09-19T10:04:46;114.85;;;108.40;;
25932;SDS011;13731;51.166;4.474;2023-09-19T10:07:33;89.47;;;84.88;;
25932;SDS011;13731;51.166;4.474;2023-09-19T10:10:03;84.90;;;80.53;;
25932;SDS011;13731;51.166;4.474;2023-09-19T10:12:42;44.95;;;42.47;;
25932;SDS011;13731;51.166;4.474;2023-09-19T10:15:11;117.63;;;110.57;;
25932;SDS011;13731;51.166;4.474;2023-09-19T10:17:42;39.88;;;37.40;;
25932;SDS011;13731;51.166;4.474;2023-09-19T10:20:11;43.78;;;41.33;;
25932;SDS011;13731;51.166;4.474;2023-09-19T10:22:59;39.33;;;37.10;;
25932;SDS011;13731;51.166;4.474;2023-09-19T10:25:26;45.45;;;43.15;;
25932;SDS011;13731;51.166;4.474;2023-09-19T10:28:02;52.92;;;49.80;;
25932;SDS011;13731;51.166;4.474;2023-09-19T10:30:31;45.17;;;42.80;;
25932;SDS011;13731;51.166;4.474;2023-09-19T10:33:02;42.50;;;40.15;;
25932;SDS011;13731;51.166;4.474;2023-09-19T10:35:30;49.10;;;46.58;;
25932;SDS011;13731;51.166;4.474;2023-09-19T10:38:01;58.13;;;55.22;;
25932;SDS011;13731;51.166;4.474;2023-09-19T10:40:28;50.38;;;47.30;;
25932;SDS011;13731;51.166;4.474;2023-09-19T10:43:03;49.90;;;47.22;;
25932;SDS011;13731;51.166;4.474;2023-09-19T10:45:31;62.15;;;58.92;;
25932;SDS011;13731;51.166;4.474;2023-09-19T10:47:59;63.30;;;59.83;;
25932;SDS011;13731;51.166;4.474;2023-09-19T10:50:30;66.70;;;63.25;;
25932;SDS011;13731;51.166;4.474;2023-09-19T10:53:02;84.65;;;80.38;;
25932;SDS011;13731;51.166;4.474;2023-09-19T10:55:32;69.93;;;66.60;;
25932;SDS011;13731;51.166;4.474;2023-09-19T10:58:00;72.90;;;69.30;;
25932;SDS011;13731;51.166;4.474;2023-09-19T11:05:37;56.47;;;53.70;;
25932;SDS011;13731;51.166;4.474;2023-09-19T11:08:08;55.47;;;52.75;;
25932;SDS011;13731;51.166;4.474;2023-09-19T11:10:46;62.55;;;59.38;;
25932;SDS011;13731;51.166;4.474;2023-09-19T11:24:39;37.55;;;35.45;;
25932;SDS011;13731;51.166;4.474;2023-09-19T11:26:48;39.80;;;37.85;;
25932;SDS011;13731;51.166;4.474;2023-09-19T11:29:26;58.60;;;55.08;;
25932;SDS011;13731;51.166;4.474;2023-09-19T11:31:54;47.10;;;44.75;;
25932;SDS011;13731;51.166;4.474;2023-09-19T11:37:03;50.80;;;48.63;;
25932;SDS011;13731;51.166;4.474;2023-09-19T11:39:36;59.05;;;56.25;;
25932;SDS011;13731;51.166;4.474;2023-09-19T11:48:15;41.00;;;38.90;;
25932;SDS011;13731;51.166;4.474;2023-09-19T11:50:44;45.03;;;42.97;;
25932;SDS011;13731;51.166;4.474;2023-09-19T11:53:12;59.45;;;56.30;;
25932;SDS011;13731;51.166;4.474;2023-09-19T11:55:39;52.70;;;50.00;;
25932;SDS011;13731;51.166;4.474;2023-09-19T11:58:08;64.32;;;61.33;;
25932;SDS011;13731;51.166;4.474;2023-09-19T12:00:37;77.32;;;73.80;;
25932;SDS011;13731;51.166;4.474;2023-09-19T12:03:08;90.57;;;86.35;;
25932;SDS011;13731;51.166;4.474;2023-09-19T12:05:36;107.07;;;101.85;;
25932;SDS011;13731;51.166;4.474;2023-09-19T12:08:07;95.05;;;90.63;;
25932;SDS011;13731;51.166;4.474;2023-09-19T12:10:46;95.13;;;90.72;;
25932;SDS011;13731;51.166;4.474;2023-09-19T12:13:17;95.78;;;91.15;;
25932;SDS011;13731;51.166;4.474;2023-09-19T12:15:46;100.40;;;95.40;;
25932;SDS011;13731;51.166;4.474;2023-09-19T12:21:28;92.25;;;88.00;;
25932;SDS011;13731;51.166;4.474;2023-09-19T12:26:30;84.25;;;80.40;;
25932;SDS011;13731;51.166;4.474;2023-09-19T12:29:12;100.47;;;95.63;;
25932;SDS011;13731;51.166;4.474;2023-09-19T12:31:52;61.05;;;58.17;;
25932;SDS011;13731;51.166;4.474;2023-09-19T12:34:23;63.67;;;60.38;;
25932;SDS011;13731;51.166;4.474;2023-09-19T12:39:47;58.58;;;55.60;;
25932;SDS011;13731;51.166;4.474;2023-09-19T12:42:15;67.90;;;64.70;;
25932;SDS011;13731;51.166;4.474;2023-09-19T12:44:52;106.03;;;101.13;;
25932;SDS011;13731;51.166;4.474;2023-09-19T12:47:24;89.53;;;85.53;;
25932;SDS011;13731;51.166;4.474;2023-09-19T12:50:06;110.57;;;105.50;;
25932;SDS011;13731;51.166;4.474;2023-09-19T12:52:46;101.22;;;96.35;;
25932;SDS011;13731;51.166;4.474;2023-09-19T13:00:36;113.65;;;108.63;;
25932;SDS011;13731;51.166;4.474;2023-09-19T13:08:28;120.20;;;114.38;;
25932;SDS011;13731;51.166;4.474;2023-09-19T13:13:38;122.60;;;116.70;;
25932;SDS011;13731;51.166;4.474;2023-09-19T13:16:06;113.20;;;107.97;;
25932;SDS011;13731;51.166;4.474;2023-09-19T13:18:43;100.70;;;96.05;;
25932;SDS011;13731;51.166;4.474;2023-09-19T13:21:13;103.65;;;98.90;;
25932;SDS011;13731;51.166;4.474;2023-09-19T13:23:52;161.45;;;149.45;;
25932;SDS011;13731;51.166;4.474;2023-09-19T13:26:24;99.00;;;94.32;;
25932;SDS011;13731;51.166;4.474;2023-09-19T13:28:54;144.35;;;135.25;;
25932;SDS011;13731;51.166;4.474;2023-09-19T13:31:20;108.53;;;103.03;;
25932;SDS011;13731;51.166;4.474;2023-09-19T13:33:47;111.78;;;106.40;;
25932;SDS011;13731;51.166;4.474;2023-09-19T13:36:14;106.68;;;101.50;;
25932;SDS011;13731;51.166;4.474;2023-09-19T13:38:40;134.52;;;128.30;;
25932;SDS011;13731;51.166;4.474;2023-09-19T13:41:10;117.43;;;111.82;;
25932;SDS011;13731;51.166;4.474;2023-09-19T13:43:37;99.25;;;94.78;;
25932;SDS011;13731;51.166;4.474;2023-09-19T13:46:04;101.95;;;97.25;;
25932;SDS011;13731;51.166;4.474;2023-09-19T13:48:30;98.07;;;93.47;;
25932;SDS011;13731;51.166;4.474;2023-09-19T13:50:56;106.90;;;101.07;;
25932;SDS011;13731;51.166;4.474;2023-09-19T13:53:22;103.05;;;98.32;;
25932;SDS011;13731;51.166;4.474;2023-09-19T13:55:48;117.88;;;112.47;;
25932;SDS011;13731;51.166;4.474;2023-09-19T13:58:14;123.18;;;117.53;;
25932;SDS011;13731;51.166;4.474;2023-09-19T14:00:40;72.35;;;68.97;;
25932;SDS011;13731;51.166;4.474;2023-09-19T14:03:06;76.35;;;72.80;;
25932;SDS011;13731;51.166;4.474;2023-09-19T14:05:33;77.05;;;73.47;;
25932;SDS011;13731;51.166;4.474;2023-09-19T14:07:59;73.72;;;69.97;;
25932;SDS011;13731;51.166;4.474;2023-09-19T14:10:25;91.45;;;87.35;;
25932;SDS011;13731;51.166;4.474;2023-09-19T14:12:56;64.65;;;61.55;;
25932;SDS011;13731;51.166;4.474;2023-09-19T14:15:24;65.28;;;62.33;;
25932;SDS011;13731;51.166;4.474;2023-09-19T14:17:57;67.07;;;63.58;;
25932;SDS011;13731;51.166;4.474;2023-09-19T14:20:25;66.75;;;63.47;;
25932;SDS011;13731;51.166;4.474;2023-09-19T14:22:55;31.50;;;29.85;;
25932;SDS011;13731;51.166;4.474;2023-09-19T14:25:20;24.92;;;23.65;;
25932;SDS011;13731;51.166;4.474;2023-09-19T14:27:47;28.50;;;26.98;;
25932;SDS011;13731;51.166;4.474;2023-09-19T14:30:13;52.08;;;49.47;;
25932;SDS011;13731;51.166;4.474;2023-09-19T14:32:39;30.75;;;29.02;;
25932;SDS011;13731;51.166;4.474;2023-09-19T14:35:06;82.03;;;76.90;;
25932;SDS011;13731;51.166;4.474;2023-09-19T14:37:32;62.70;;;59.42;;
25932;SDS011;13731;51.166;4.474;2023-09-19T14:39:58;76.63;;;72.70;;
25932;SDS011;13731;51.166;4.474;2023-09-19T14:42:24;98.07;;;93.30;;
25932;SDS011;13731;51.166;4.474;2023-09-19T14:44:50;107.93;;;102.40;;
25932;SDS011;13731;51.166;4.474;2023-09-19T14:47:16;106.93;;;102.00;;
25932;SDS011;13731;51.166;4.474;2023-09-19T14:49:42;112.00;;;106.22;;
25932;SDS011;13731;51.166;4.474;2023-09-19T14:52:08;108.63;;;102.70;;
25932;SDS011;13731;51.166;4.474;2023-09-19T14:54:35;102.90;;;97.95;;
25932;SDS011;13731;51.166;4.474;2023-09-19T14:57:03;99.45;;;94.65;;
25932;SDS011;13731;51.166;4.474;2023-09-19T14:59:32;94.10;;;89.75;;
25932;SDS011;13731;51.166;4.474;2023-09-19T15:02:05;71.55;;;67.55;;
25932;SDS011;13731;51.166;4.474;2023-09-19T15:04:32;84.13;;;80.10;;
25932;SDS011;13731;51.166;4.474;2023-09-19T15:06:59;92.07;;;87.78;;
25932;SDS011;13731;51.166;4.474;2023-09-19T15:09:25;71.35;;;67.45;;
25932;SDS011;13731;51.166;4.474;2023-09-19T15:11:54;69.25;;;65.32;;
25932;SDS011;13731;51.166;4.474;2023-09-19T15:14:21;64.05;;;60.60;;
25932;SDS011;13731;51.166;4.474;2023-09-19T15:16:47;68.10;;;64.72;;
25932;SDS011;13731;51.166;4.474;2023-09-19T15:19:14;61.75;;;58.55;;
25932;SDS011;13731;51.166;4.474;2023-09-19T15:21:41;56.08;;;53.35;;
25932;SDS011;13731;51.166;4.474;2023-09-19T15:24:07;88.38;;;82.82;;
25932;SDS011;13731;51.166;4.474;2023-09-19T15:26:36;59.47;;;56.20;;
25932;SDS011;13731;51.166;4.474;2023-09-19T15:29:07;63.35;;;59.83;;
25932;SDS011;13731;51.166;4.474;2023-09-19T15:31:34;60.42;;;57.33;;
25932;SDS011;13731;51.166;4.474;2023-09-19T15:34:04;64.47;;;60.85;;
25932;SDS011;13731;51.166;4.474;2023-09-19T15:36:33;65.90;;;62.22;;
25932;SDS011;13731;51.166;4.474;2023-09-19T15:39:03;64.28;;;61.08;;
25932;SDS011;13731;51.166;4.474;2023-09-19T15:41:35;75.03;;;71.15;;
25932;SDS011;13731;51.166;4.474;2023-09-19T15:44:10;73.43;;;69.65;;
25932;SDS011;13731;51.166;4.474;2023-09-19T15:46:41;87.35;;;82.78;;
25932;SDS011;13731;51.166;4.474;2023-09-19T15:49:07;66.03;;;62.80;;